createdAt,value
2024-03-01T00:10:43.390Z,64.24
2024-03-01T00:25:43.745Z,66.19
2024-03-01T00:40:44.166Z,67.29
2024-03-01T00:55:44.565Z,58.71
2024-03-01T01:10:45.101Z,98.39
2024-03-01T01:25:45.577Z,71.98
2024-03-01T01:40:46.077Z,71.11
2024-03-01T01:55:46.358Z,65.98
2024-03-01T02:10:46.907Z,41.06
2024-03-01T02:25:47.486Z,40.76
2024-03-01T02:40:47.840Z,40.67
2024-03-01T02:55:48.201Z,47.03
2024-03-01T03:10:48.682Z,42.37
2024-03-01T03:25:49.060Z,57.92
2024-03-01T03:40:49.539Z,26.04
2024-03-01T03:55:49.854Z,25.55
2024-03-01T04:10:50.229Z,25.98
2024-03-01T04:25:50.486Z,16.25
2024-03-01T04:40:50.921Z,17.24
2024-03-01T04:55:51.645Z,17.23
2024-03-01T05:10:52.699Z,11.27
2024-03-01T05:25:53.051Z,22.89
2024-03-01T05:40:55.779Z,15.95
2024-03-01T05:55:54.834Z,20.02
2024-03-01T06:10:55.599Z,17.51
2024-03-01T06:25:56.280Z,14.56
2024-03-01T06:40:57.020Z,74.75
2024-03-01T06:55:57.625Z,9.96
2024-03-01T07:10:58.281Z,6.89
2024-03-01T07:25:58.962Z,7.96
2024-03-01T07:40:59.616Z,8.13
2024-03-01T07:56:00.312Z,19.15
2024-03-01T08:11:00.972Z,16.64
2024-03-01T08:26:01.622Z,16.42
2024-03-01T08:41:02.262Z,41.62
2024-03-01T08:56:03.031Z,24.20
2024-03-01T09:11:04.169Z,26.52
2024-03-01T09:26:04.272Z,21.15
2024-03-01T09:41:04.960Z,21.56
2024-03-01T09:56:05.470Z,26.12
2024-03-01T10:11:06.229Z,33.15
2024-03-01T10:26:06.874Z,53.33
2024-03-01T10:41:11.895Z,26.25
2024-03-01T10:56:09.110Z,50.13
2024-03-01T11:11:08.500Z,12.61
2024-03-01T11:26:09.074Z,11.43
2024-03-01T11:41:09.735Z,1.51
2024-03-01T11:56:10.181Z,0.24
2024-03-01T12:11:10.623Z,7.25
2024-03-01T12:26:10.957Z,3.45
2024-03-01T12:41:11.939Z,0.30
2024-03-01T12:56:12.275Z,0.84
2024-03-01T13:11:12.827Z,4.31
2024-03-01T13:26:13.252Z,10.19
2024-03-01T13:41:13.806Z,0.66
2024-03-01T13:56:14.158Z,0.45
2024-03-01T14:11:14.691Z,1.30
2024-03-01T14:26:15.057Z,6.19
2024-03-01T14:41:16.214Z,39.26
2024-03-01T14:56:16.650Z,0.32
2024-03-01T15:11:17.202Z,11.40
2024-03-01T15:26:17.662Z,29.09
2024-03-01T15:41:18.067Z,1.51
2024-03-01T15:56:18.495Z,0.80
2024-03-01T16:11:18.993Z,12.82
2024-03-01T16:26:19.562Z,12.15
2024-03-01T16:41:19.992Z,12.56
2024-03-01T16:56:20.485Z,1000.00
2024-03-01T17:11:20.897Z,1000.00
2024-03-01T17:26:23.337Z,457.32
2024-03-01T17:41:22.436Z,1000.00
2024-03-01T17:56:23.207Z,1000.00
2024-03-01T18:11:23.859Z,1000.00
2024-03-01T18:26:24.546Z,454.81
2024-03-01T18:41:25.245Z,1000.00
2024-03-01T18:56:25.986Z,431.36
2024-03-01T19:11:26.822Z,1000.00
2024-03-01T19:26:27.021Z,684.28
2024-03-01T19:41:27.710Z,256.75
2024-03-01T19:56:28.382Z,233.53
2024-03-01T20:11:29.156Z,455.88
2024-03-01T20:26:29.943Z,289.07
2024-03-01T20:41:30.859Z,173.36
2024-03-01T20:56:31.178Z,245.19
2024-03-01T21:11:31.496Z,197.89
2024-03-01T21:26:32.211Z,158.39
2024-03-01T21:41:33.002Z,199.67
2024-03-01T21:56:33.824Z,62.42
2024-03-01T22:11:34.748Z,48.64
2024-03-01T22:26:35.035Z,73.08
2024-03-01T22:41:35.897Z,148.12
2024-03-01T22:56:36.185Z,62.11
2024-03-01T23:11:37.131Z,121.73
2024-03-01T23:26:37.554Z,97.73
2024-03-01T23:41:37.995Z,59.80
2024-03-01T23:56:38.307Z,74.27
